Latest Weather Observations for Warrnambool

IDV60801

Issued at 9:32 am EST Saturday 19 August 2017 (issued every 30 minutes, with the page automatically refreshed every 10 minutes)

About weather observations | Map of weather stations | Latest weather observations for VIC | Other Formats
Station Details ID: 090186 Name: WARRNAMBOOL AIRPORT NDB Lat: -38.29 Lon: 142.45 Height: 70.8 m
Data from the previous 72 hours. | See also: Recent months at Warrnambool
Date/Time
EST
Temp
°C
App
Temp
°C
Dew
Point
°C
Rel
Hum
%
Delta-T
°C
Wind Press
QNH
hPa
Press
MSL
hPa
Rain since
9am
mm
Dir  Spd
km/h
Gust
km/h
Spd
kts
Gust
kts
19/09:30am 8.4 5.3 5.7 83 1.2 SSE 11 15 6 8 1027.8 1027.9 0.0
19/09:00am 7.4 4.9 4.7 83 1.2 WNW 7 11 4 6 1027.7 1027.8 7.6
19/08:30am 7.9 5.7 5.4 84 1.1 N 6 7 3 4 1027.0 1027.2 7.6
19/08:00am 5.5 2.9 4.0 90 0.6 NW 7 11 4 6 1026.6 1026.8 7.6
19/07:30am 6.3 3.6 3.5 82 1.2 WSW 7 26 4 14 1026.1 1026.2 7.4
19/07:00am 5.6 2.8 3.1 84 1.0 SSE 7 11 4 6 1025.6 1025.7 7.2
19/06:30am 6.3 1.8 4.3 87 0.9 SSE 17 22 9 12 1025.3 1025.4 7.2
19/06:00am 6.5 1.0 3.8 83 1.1 SSW 22 30 12 16 1024.9 1025.0 7.2
19/05:30am 4.9 0.4 2.4 84 1.0 SSW 15 22 8 12 1024.4 1024.5 7.0
19/05:00am 6.1 0.7 2.4 77 1.5 SSW 20 26 11 14 1024.2 1024.3 7.0
19/04:30am 6.0 1.0 3.7 85 1.0 SW 19 28 10 15 1023.9 1024.0 7.0
19/04:00am 6.7 1.6 4.2 84 1.1 S 20 28 11 15 1023.7 1023.8 6.6
19/03:30am 6.4 1.1 3.0 79 1.4 SSW 20 28 11 15 1023.4 1023.5 6.6
19/03:00am 5.7 1.0 3.4 85 1.0 SSW 17 20 9 11 1023.2 1023.3 6.6
19/02:37am 6.1 -1.6 3.6 84 1.1 SSW 33 56 18 30 1023.1 1023.2 6.4
19/02:33am 6.4 0.1 3.6 82 1.2 SSW 26 56 14 30 1023.3 1023.4 6.2
19/02:30am 6.7 1.6 4.0 83 1.2 SSW 20 30 11 16 1023.1 1023.2 6.2
19/02:00am 7.0 1.6 4.7 85 1.0 SW 22 30 12 16 1022.9 1023.0 5.6
19/01:30am 7.1 1.5 3.2 76 1.6 SW 22 28 12 15 1022.9 1023.0 5.2
19/01:00am 7.9 2.7 3.6 74 1.8 SW 20 28 11 15 1022.6 1022.7 5.2
19/12:30am 6.9 0.0 2.8 75 1.7 SW 28 33 15 18 1022.6 1022.7 5.2
19/12:00am 7.5 1.1 3.2 74 1.8 SW 26 39 14 21 1022.5 1022.6 5.2
 
Date/Time
EST
Temp
°C
App
Temp
°C
Dew
Point
°C
Rel
Hum
%
Delta-T
°C
Wind Press
QNH
hPa
Press
MSL
hPa
Rain since
9am
mm
Dir  Spd
km/h
Gust
km/h
Spd
kts
Gust
kts
18/11:30pm 8.2 1.9 4.0 75 1.8 SSW 26 37 14 20 1022.3 1022.4 5.2
18/11:00pm 8.1 1.3 3.0 70 2.2 SW 28 39 15 21 1022.2 1022.3 5.2
18/10:30pm 7.7 0.4 2.6 70 2.1 SW 30 39 16 21 1022.0 1022.1 5.2
18/10:00pm 7.9 1.1 3.2 72 2.0 SW 28 35 15 19 1021.8 1021.9 5.2
18/09:30pm 8.0 1.2 3.3 72 2.0 SW 28 39 15 21 1021.5 1021.6 5.2
18/09:00pm 8.1 1.4 3.8 74 1.9 SW 28 35 15 19 1021.2 1021.3 5.2
18/08:30pm 8.0 1.4 4.2 77 1.7 SSW 28 37 15 20 1020.7 1020.8 5.2
18/08:00pm 8.4 1.7 3.8 73 2.0 SW 28 37 15 20 1020.4 1020.5 5.2
18/07:30pm 8.6 2.1 4.6 76 1.8 SSW 28 33 15 18 1019.9 1020.0 5.2
18/07:00pm 8.5 1.6 4.5 76 1.8 SW 30 37 16 20 1019.4 1019.5 5.2
18/06:30pm 8.6 0.2 3.8 72 2.1 SSW 37 46 20 25 1018.8 1018.9 5.2
18/06:00pm 8.9 1.4 4.7 75 1.9 SSW 33 43 18 23 1018.2 1018.3 5.2
18/05:31pm 8.7 1.7 4.3 74 1.9 SW 30 48 16 26 1017.7 1017.8 5.2
18/05:30pm 8.6 2.0 4.2 74 1.9 SW 28 43 15 23 1017.6 1017.7 5.2
18/05:00pm 8.9 2.5 5.3 78 1.6 SW 28 35 15 19 1017.2 1017.3 4.4
18/04:42pm 9.6 1.9 5.4 75 1.9 SW 35 54 19 29 1016.9 1017.0 4.4
18/04:30pm 10.4 3.6 6.9 79 1.7 WSW 32 44 17 24 1016.7 1016.8 4.4
18/04:00pm 9.9 1.7 4.9 71 2.3 SW 37 50 20 27 1016.2 1016.3 4.4
18/03:30pm 9.8 2.2 5.6 75 1.9 WSW 35 48 19 26 1015.7 1015.8 4.4
18/03:18pm 10.1 1.3 5.7 74 2.0 SW 41 61 22 33 1015.7 1015.8 4.4
18/03:00pm 10.8 1.8 6.4 74 2.1 SW 43 56 23 30 1015.3 1015.4 4.4
18/02:40pm 8.3 0.8 6.4 88 0.9 SW 35 54 19 29 1015.0 1015.1 4.4
18/02:30pm 8.2 -0.5 6.0 86 1.0 SW 41 52 22 28 1015.0 1015.1 3.8
18/02:00pm 9.5 2.6 6.4 81 1.4 SW 32 43 17 23 1014.5 1014.5 3.4
18/01:30pm 10.4 2.8 6.0 74 2.0 WSW 35 50 19 27 1013.9 1013.9 3.4
18/01:27pm 10.9 4.0 6.3 73 2.2 WSW 32 50 17 27 1013.9 1013.9 3.4
18/01:14pm 8.5 1.4 6.5 87 0.9 WSW 33 44 18 24 1014.0 1014.0 3.4
18/01:00pm 7.1 -2.1 5.3 88 0.8 WSW 43 63 23 34 1013.9 1013.9 3.4
18/12:58pm 6.9 -2.4 5.2 89 0.8 WSW 43 63 23 34 1013.9 1013.9 3.2
18/12:53pm 7.0 -1.6 4.7 85 1.0 WSW 39 63 21 34 1014.1 1014.1 2.0
18/12:48pm 10.5 3.7 6.8 78 1.8 WSW 32 50 17 27 1013.6 1013.6 0.0
18/12:30pm 9.5 1.9 5.7 77 1.7 WSW 35 50 19 27 1013.4 1013.4 0.0
18/12:16pm 10.6 3.6 6.2 74 2.1 WSW 32 50 17 27 1013.2 1013.2 0.0
18/12:00pm 10.0 3.0 5.8 75 1.9 WSW 32 43 17 23 1013.1 1013.1 0.0
18/11:49am 9.2 2.0 5.8 79 1.6 WSW 33 52 18 28 1013.1 1013.1 0.0
18/11:30am 10.2 1.9 6.2 76 1.9 SW 39 52 21 28 1012.6 1012.7 0.0
18/11:12am 10.8 2.9 6.0 72 2.2 SW 37 56 20 30 1012.4 1012.5 0.0
18/11:00am 9.4 2.2 5.8 78 1.7 WSW 33 44 18 24 1012.2 1012.3 0.0
18/10:37am 10.5 3.5 5.9 73 2.1 WSW 32 52 17 28 1012.0 1012.1 0.0
18/10:30am 9.8 3.3 6.5 80 1.5 WSW 30 41 16 22 1011.7 1011.8 0.0
18/10:00am 9.9 1.9 5.5 74 2.0 WSW 37 52 20 28 1011.1 1011.2 0.0
18/09:30am 9.7 2.6 5.7 76 1.8 WSW 32 43 17 23 1010.7 1010.8 0.0
18/09:00am 8.5 0.7 4.9 78 1.6 SW 35 48 19 26 1010.2 1010.3 11.6
18/08:54am 9.5 3.0 4.9 73 2.1 WSW 28 48 15 26 1009.9 1010.0 11.6
18/08:30am 7.5 2.8 6.0 90 0.7 W 20 30 11 16 1009.6 1009.7 11.6
18/08:10am 6.7 2.1 5.8 94 0.4 WNW 19 28 10 15 1009.0 1009.1 11.6
18/08:00am 6.2 2.7 5.5 95 0.3 WNW 13 20 7 11 1008.8 1008.9 11.6
18/07:54am 6.3 2.1 5.6 95 0.3 WNW 17 26 9 14 1008.6 1008.7 11.0
18/07:30am 6.4 1.2 5.4 93 0.4 WNW 22 32 12 17 1008.4 1008.5 9.4
18/07:00am 6.1 1.2 5.2 94 0.4 NW 20 28 11 15 1008.2 1008.3 8.4
18/06:31am 5.7 -0.1 4.5 92 0.5 W 24 32 13 17 1007.5 1007.6 8.2
18/06:30am 5.6 -0.2 4.4 92 0.5 W 24 32 13 17 1007.4 1007.5 8.2
18/06:13am 5.2 -1.5 3.4 88 0.8 WNW 28 72 15 39 1008.0 1008.1 7.6
18/06:00am 6.8 1.9 5.1 89 0.8 WNW 20 33 11 18 1007.0 1007.1 6.0
18/05:30am 8.0 1.6 5.1 82 1.3 W 28 54 15 29 1006.5 1006.6 5.4
18/05:00am 7.9 2.5 4.5 79 1.5 W 22 30 12 16 1006.0 1006.1 5.4
18/04:30am 8.1 1.4 5.4 83 1.2 W 30 39 16 21 1005.6 1005.7 5.4
18/04:00am 6.4 1.2 5.4 93 0.4 WNW 22 30 12 16 1005.4 1005.5 5.4
18/03:30am 6.4 -0.4 5.0 91 0.6 W 30 43 16 23 1004.9 1005.0 5.4
18/03:00am 6.5 1.9 5.6 94 0.4 WNW 19 28 10 15 1004.4 1004.5 4.4
18/02:43am 6.6 -0.1 5.7 94 0.4 NW 30 46 16 25 1004.4 1004.5 3.2
18/02:30am 6.6 -0.1 5.6 93 0.4 NW 30 39 16 21 1004.0 1004.1 2.2
18/02:14am 6.8 -0.5 5.6 92 0.5 NW 33 56 18 30 1003.8 1003.9 2.2
18/02:00am 6.7 -1.0 5.3 91 0.6 NW 35 46 19 25 1003.8 1003.9 2.0
18/01:30am 6.9 -0.8 5.5 91 0.6 NW 35 46 19 25 1003.4 1003.5 2.0
18/01:00am 6.7 -0.4 5.3 91 0.6 NW 32 41 17 22 1003.4 1003.5 2.0
18/12:30am 7.1 0.5 5.9 92 0.5 NW 30 43 16 23 1003.6 1003.7 2.0
18/12:07am 7.1 0.8 5.7 91 0.6 NW 28 50 15 27 1003.4 1003.5 1.6
18/12:00am 7.0 0.7 5.8 92 0.5 NW 28 35 15 19 1003.5 1003.6 1.6
 
Date/Time
EST
Temp
°C
App
Temp
°C
Dew
Point
°C
Rel
Hum
%
Delta-T
°C
Wind Press
QNH
hPa
Press
MSL
hPa
Rain since
9am
mm
Dir  Spd
km/h
Gust
km/h
Spd
kts
Gust
kts
17/11:30pm 6.8 -0.5 5.3 90 0.7 NW 33 46 18 25 1003.1 1003.2 1.2
17/11:00pm 6.6 -0.8 5.1 90 0.7 NW 33 46 18 25 1003.3 1003.4 1.2
17/10:30pm 6.6 0.2 5.2 91 0.6 NW 28 39 15 21 1003.4 1003.5 1.2
17/10:00pm 7.4 -0.7 5.4 87 0.9 NW 37 57 20 31 1003.5 1003.6 0.8
17/09:30pm 6.8 0.4 5.1 89 0.7 NW 28 37 15 20 1003.0 1003.0 0.8
17/09:00pm 6.7 0.4 5.5 92 0.5 NNW 28 35 15 19 1002.9 1002.9 0.8
17/08:30pm 6.5 0.5 5.1 91 0.6 NW 26 35 14 19 1002.9 1002.9 0.8
17/08:00pm 6.8 0.3 4.8 87 0.9 NW 28 35 15 19 1002.8 1002.8 0.8
17/07:33pm 7.7 0.5 5.8 88 0.9 NW 33 54 18 29 1003.0 1003.0 0.8
17/07:30pm 7.7 0.7 5.8 88 0.9 NW 32 43 17 23 1003.2 1003.3 0.8
17/07:12pm 7.4 0.6 5.2 86 1.0 NW 30 48 16 26 1002.4 1002.4 0.6
17/07:00pm 7.6 0.3 5.6 87 0.9 NW 33 43 18 23 1002.2 1002.2 0.6
17/06:41pm 8.1 1.5 5.9 86 1.0 NW 30 48 16 26 1002.3 1002.3 0.4
17/06:30pm 8.5 2.4 6.5 87 0.9 NW 28 37 15 20 1001.9 1001.9 0.2
17/06:00pm 8.0 2.1 5.8 86 1.0 NNW 26 35 14 19 1001.2 1001.2 0.2
17/05:30pm 8.5 2.6 6.0 84 1.1 NW 26 33 14 18 1001.1 1001.1 0.2
17/05:00pm 9.0 2.4 5.9 81 1.4 NW 30 39 16 21 1000.7 1000.7 0.2
17/04:30pm 9.3 2.3 5.9 79 1.6 NW 32 41 17 22 1000.9 1000.9 0.0
17/04:00pm 9.3 3.8 5.9 79 1.6 NW 24 39 13 21 1000.7 1000.7 0.0
17/03:30pm 10.6 3.2 6.6 76 1.9 W 35 54 19 29 1000.5 1000.5 0.0
17/03:25pm 11.5 4.3 6.0 69 2.6 WNW 33 52 18 28 1000.3 1000.3 0.0
17/03:00pm 11.9 6.1 7.8 76 2.0 NW 28 41 15 22 1000.3 1000.3 0.0
17/02:42pm 11.4 5.4 6.9 74 2.1 WNW 28 46 15 25 1000.2 1000.2 0.0
17/02:30pm 11.9 5.4 6.6 70 2.5 WNW 30 44 16 24 1000.2 1000.2 0.0
17/02:19pm 12.0 5.7 7.5 74 2.2 NW 30 48 16 26 1000.2 1000.2 0.0
17/02:00pm 11.4 2.8 6.5 72 2.3 NW 41 54 22 29 999.7 999.7 0.0
17/01:30pm 12.4 5.3 8.1 75 2.1 NW 35 46 19 25 1000.0 1000.0 0.0
17/01:00pm 11.4 4.0 6.9 74 2.2 NW 35 46 19 25 1000.1 1000.1 0.0
17/12:30pm 12.0 5.5 6.7 70 2.5 WNW 30 46 16 25 1000.5 1000.5 0.0
17/12:22pm 12.0 5.7 7.5 74 2.2 WNW 30 48 16 26 1000.5 1000.5 0.0
17/12:00pm 11.7 4.6 6.4 70 2.5 WNW 33 48 18 26 1000.5 1000.5 0.0
17/11:30am 12.5 5.9 7.6 72 2.4 WNW 32 57 17 31 1000.7 1000.7 0.0
17/11:17am 12.0 3.6 7.5 74 2.2 NW 41 59 22 32 1000.5 1000.5 0.0
17/11:00am 11.5 3.2 7.8 78 1.8 NW 41 56 22 30 1000.5 1000.5 0.0
17/10:31am 11.1 2.7 7.4 78 1.8 NW 41 59 22 32 1000.6 1000.6 0.0
17/10:30am 11.2 2.5 7.9 80 1.6 NW 43 59 23 32 1000.6 1000.6 0.0
17/10:00am 10.7 3.5 7.8 82 1.4 NW 35 48 19 26 1000.7 1000.7 0.0
17/09:30am 10.0 3.8 7.8 86 1.1 NNW 30 37 16 20 1000.6 1000.6 0.0
17/09:00am 8.5 2.9 7.1 91 0.7 NNW 26 35 14 19 1000.6 1000.6 16.4
17/08:30am 8.0 2.3 6.9 93 0.5 NNW 26 30 14 16 1000.5 1000.5 16.4
17/08:00am 7.9 2.2 6.8 93 0.5 NW 26 33 14 18 1000.3 1000.3 16.4
17/07:30am 7.7 2.4 6.8 94 0.4 NW 24 32 13 17 1000.7 1000.7 16.2
17/07:00am 7.9 2.6 7.0 94 0.4 NW 24 32 13 17 1000.5 1000.5 15.2
17/06:31am 8.0 2.8 7.1 94 0.4 WNW 24 37 13 20 1000.5 1000.5 14.4
17/06:30am 8.0 2.8 7.1 94 0.4 WNW 24 39 13 21 1000.5 1000.5 14.4
17/06:15am 8.6 2.3 7.4 92 0.6 WNW 30 41 16 22 1000.7 1000.7 13.6
17/06:00am 9.0 4.8 7.3 89 0.8 NNW 19 24 10 13 1000.0 1000.0 13.0
17/05:30am 8.8 4.6 7.4 91 0.7 NNW 19 24 10 13 999.9 999.9 13.0
17/05:00am 9.1 4.4 7.7 91 0.7 NNW 22 32 12 17 1000.0 1000.0 12.6
17/04:30am 8.7 4.5 7.5 92 0.6 NNW 19 24 10 13 999.7 999.7 12.6
17/04:00am 9.2 4.5 7.8 91 0.7 NW 22 28 12 15 999.8 999.8 12.6
17/03:30am 8.9 3.0 7.5 91 0.7 NNW 28 35 15 19 1000.1 1000.1 12.6
17/03:00am 8.7 2.8 7.3 91 0.7 NNW 28 35 15 19 1000.0 1000.0 12.6
17/02:30am 9.0 3.1 7.3 89 0.8 NW 28 37 15 20 1000.3 1000.3 12.6
17/02:00am 9.1 3.2 7.5 90 0.8 NW 28 35 15 19 1000.3 1000.3 12.6
17/01:30am 9.0 3.1 7.6 91 0.7 NW 28 35 15 19 1000.7 1000.7 12.6
17/01:00am 9.3 2.7 7.9 91 0.7 NW 32 43 17 23 1000.5 1000.5 12.6
17/12:30am 9.5 3.0 8.1 91 0.7 NW 32 39 17 21 1000.6 1000.6 12.6
17/12:00am 9.7 3.2 8.3 91 0.7 NW 32 44 17 24 1000.2 1000.2 12.6
 
Date/Time
EST
Temp
°C
App
Temp
°C
Dew
Point
°C
Rel
Hum
%
Delta-T
°C
Wind Press
QNH
hPa
Press
MSL
hPa
Rain since
9am
mm
Dir  Spd
km/h
Gust
km/h
Spd
kts
Gust
kts
16/11:30pm 9.6 3.1 8.2 91 0.7 NW 32 41 17 22 1000.4 1000.4 12.6
16/11:00pm 9.5 1.7 8.3 92 0.6 NW 39 54 21 29 1000.5 1000.5 12.6
16/10:58pm 9.6 2.2 8.4 92 0.6 NW 37 54 20 29 1000.6 1000.6 12.6
16/10:31pm 9.4 2.6 7.7 89 0.8 W 33 63 18 34 1001.2 1001.2 10.6
16/10:30pm 9.5 3.4 8.3 92 0.6 W 30 48 16 26 1001.3 1001.3 10.4
16/10:04pm 10.2 4.3 9.0 92 0.6 WNW 30 46 16 25 1000.9 1000.9 6.4
16/10:01pm 10.3 4.0 9.1 92 0.6 NW 32 43 17 23 1001.0 1001.0 6.0
16/10:00pm 10.3 4.0 9.1 92 0.6 NW 32 46 17 25 1001.0 1001.0 5.4
16/09:46pm 10.5 3.6 8.8 89 0.8 NNW 35 57 19 31 1000.2 1000.2 4.2
16/09:30pm 9.9 4.2 8.2 89 0.8 NNW 28 39 15 21 1000.3 1000.3 4.2
16/09:00pm 9.4 4.5 8.3 93 0.5 NNW 24 30 13 16 1000.3 1000.3 4.2
16/08:44pm 9.3 3.2 8.1 92 0.6 NW 30 39 16 21 1000.2 1000.2 4.2
16/08:40pm 9.4 2.8 7.8 90 0.8 NW 32 50 17 27 1000.2 1000.2 4.2
16/08:31pm 9.8 1.5 7.6 86 1.1 NNW 41 54 22 29 1000.6 1000.6 3.6
16/08:30pm 9.8 1.9 7.9 88 0.9 NNW 39 54 21 29 1000.7 1000.7 3.4
16/08:23pm 10.3 3.9 8.6 89 0.8 NNW 32 54 17 29 1000.8 1000.8 2.8
16/08:00pm 9.5 4.8 7.8 89 0.8 NNW 22 28 12 15 1000.6 1000.6 2.6
16/07:30pm 10.1 5.5 8.2 88 0.9 NNW 22 30 12 16 1000.6 1000.6 2.6
16/07:00pm 10.0 5.1 8.3 89 0.8 NW 24 35 13 19 1000.5 1000.5 2.6
16/06:30pm 10.4 6.0 8.8 90 0.8 NW 22 30 12 16 1000.3 1000.3 2.6
16/06:00pm 10.2 7.0 8.6 90 0.8 NW 15 22 8 12 1000.0 1000.0 2.6
16/05:30pm 10.3 3.2 8.2 87 1.0 NW 35 43 19 23 999.8 999.8 2.6
16/05:18pm 10.9 4.4 8.8 87 1.0 NW 33 50 18 27 999.8 999.8 2.4
16/05:00pm 11.2 6.3 8.4 83 1.4 NW 24 32 13 17 999.4 999.4 2.0
16/04:30pm 11.2 4.7 8.8 85 1.2 WNW 33 46 18 25 999.2 999.2 1.8
16/04:06pm 12.3 6.2 8.2 76 2.0 WNW 30 50 16 27 999.1 999.1 1.8
16/04:00pm 12.6 6.8 7.9 73 2.3 WNW 28 44 15 24 999.0 999.0 1.8
16/03:46pm 13.2 7.4 7.9 70 2.6 WNW 28 52 15 28 998.8 998.8 1.8
16/03:30pm 13.1 6.7 8.4 73 2.3 WNW 32 48 17 26 998.8 998.8 1.8
16/03:03pm 13.1 5.2 8.0 71 2.5 NW 39 57 21 31 998.5 998.5 1.8
16/03:00pm 12.8 3.9 7.0 68 2.8 NW 43 57 23 31 998.4 998.4 1.8
16/02:30pm 13.9 3.6 6.5 61 3.6 WNW 50 72 27 39 998.0 998.1 1.8
16/02:00pm 14.4 4.1 6.5 59 3.9 WNW 50 72 27 39 997.7 997.8 1.8
16/01:44pm 13.5 4.2 7.5 67 2.9 WNW 46 65 25 35 997.8 997.9 1.8
16/01:30pm 13.4 3.2 7.0 65 3.1 WNW 50 65 27 35 997.7 997.8 1.8
16/01:03pm 13.6 6.1 9.5 76 2.1 W 39 57 21 31 997.9 998.0 1.8
16/01:00pm 14.1 6.0 8.7 70 2.8 WNW 41 57 22 31 997.9 998.0 1.8
16/12:32pm 13.3 3.5 8.8 74 2.3 W 50 69 27 37 997.9 998.0 1.8
16/12:30pm 13.2 2.6 8.3 72 2.4 W 54 69 29 37 997.9 998.0 1.8
16/12:13pm 12.6 4.5 8.5 76 2.0 WNW 41 59 22 32 997.8 997.9 1.8
16/12:00pm 11.9 5.6 9.8 87 1.1 WNW 33 46 18 25 998.0 998.1 1.8
16/11:59am 11.6 5.2 9.2 85 1.2 WNW 33 46 18 25 998.0 998.1 1.8
16/11:49am 10.0 0.9 8.4 90 0.8 W 46 82 25 44 998.0 998.1 1.8
16/11:41am 11.7 2.9 7.4 75 2.1 WNW 43 82 23 44 998.3 998.3 1.2
16/11:31am 13.2 5.2 7.4 68 2.8 WNW 39 63 21 34 997.7 997.8 1.0
16/11:30am 13.3 5.6 8.6 73 2.4 WNW 39 54 21 29 997.7 997.8 1.0
16/11:15am 12.4 5.0 8.3 76 2.0 WNW 37 65 20 35 997.6 997.7 1.0
16/11:08am 11.0 2.6 9.1 88 0.9 W 43 61 23 33 997.6 997.7 1.0
16/11:01am 10.1 0.5 8.0 87 1.0 W 48 65 26 35 997.7 997.8 1.0
16/11:00am 10.1 0.5 7.9 86 1.1 W 48 65 26 35 997.6 997.7 0.8
16/10:30am 12.7 5.5 7.8 72 2.4 WNW 35 56 19 30 997.1 997.2 0.4
16/10:12am 12.1 5.6 8.2 77 1.9 NW 32 50 17 27 996.9 997.0 0.4
16/10:00am 11.6 5.2 8.6 82 1.5 NW 32 44 17 24 996.9 997.0 0.4

Other Formats:

Comma delimited format used in spreadsheet applications
http://www.bom.gov.au/fwo/IDV60801/IDV60801.94837.axf

JavaScript Object Notation format (JSON) in row-major order
http://www.bom.gov.au/fwo/IDV60801/IDV60801.94837.json